West College Corner, Indiana
Current Conditions -  °F | °C
As of 8:55 PM on Sunday 23 Nov 2014 (Local Time) from KI67 Reporting Station
Overcast Overcast  
Wind Chill: 55°   Ceiling: 1100
Heat Index: 55°   Visibility: 10mi
Dew Point: 54°   Wind: 8mph
Humidity: 94%   Direction: 180°S
Pressure: 29.35"   Gusts: NA
Location:  39.57°N, 84.82°W
Report Text: KI67 240155Z AUTO 18007KT 10SM OVC011 13/12 A2935 RMK AO1 P0008
Loading
Personal Weather Stations






























Interactive Weather Map New forecast layout! Learn more

10-Day Weather Forecast

Advertisements
Track Severe Weather on mobile